createdAt,value
2023-04-01T00:01:01.397Z,90728.88
2023-04-01T00:03:28.568Z,90723.94
2023-04-01T00:05:55.758Z,90720.16
2023-04-01T00:08:22.881Z,90710.94
2023-04-01T00:10:49.580Z,90713.97
2023-04-01T00:13:16.595Z,90705.00
2023-04-01T00:15:43.796Z,90713.00
2023-04-01T00:18:10.355Z,90715.19
2023-04-01T00:20:37.235Z,90705.81
2023-04-01T00:23:03.903Z,90720.25
2023-04-01T00:25:31.186Z,90711.09
2023-04-01T00:27:57.966Z,90700.69
2023-04-01T00:30:24.523Z,90691.56
2023-04-01T00:32:54.716Z,90692.00
2023-04-01T00:35:21.350Z,90690.50
2023-04-01T00:37:48.447Z,90685.38
2023-04-01T00:40:25.343Z,90690.28
2023-04-01T00:42:52.809Z,90691.63
2023-04-01T00:45:27.242Z,90688.88
2023-04-01T00:47:54.486Z,90689.13
2023-04-01T00:50:23.451Z,90681.31
2023-04-01T00:52:50.416Z,90692.13
2023-04-01T00:55:18.280Z,90685.75
2023-04-01T00:57:46.709Z,90678.09
2023-04-01T01:00:15.103Z,90671.72
2023-04-01T01:02:42.902Z,90670.66
2023-04-01T01:05:12.669Z,90668.19
2023-04-01T01:07:58.499Z,90666.81
2023-04-01T01:10:27.678Z,90668.44
2023-04-01T01:12:54.159Z,90669.13
2023-04-01T01:15:20.830Z,90672.38
2023-04-01T01:18:15.476Z,90668.47
2023-04-01T01:20:51.126Z,90659.84
2023-04-01T01:23:36.326Z,90661.50
2023-04-01T01:26:25.693Z,90661.31
2023-04-01T01:29:01.293Z,90657.75
2023-04-01T01:31:46.486Z,90662.34
2023-04-01T01:34:31.328Z,90656.53
2023-04-01T01:37:01.394Z,90660.19
2023-04-01T01:39:31.336Z,90656.22
2023-04-01T01:42:00.270Z,90661.69
2023-04-01T01:44:29.007Z,90657.00
2023-04-01T01:46:56.739Z,90652.09
2023-04-01T01:49:24.236Z,90651.63
2023-04-01T01:51:51.209Z,90646.31
2023-04-01T01:54:18.699Z,90645.53
2023-04-01T01:56:47.629Z,90635.84
2023-04-01T01:59:16.330Z,90644.91
2023-04-01T02:01:45.417Z,90638.06
2023-04-01T02:04:13.810Z,90634.44
2023-04-01T02:06:43.900Z,90637.19
2023-04-01T02:09:12.031Z,90632.84
2023-04-01T02:11:38.513Z,90634.47
2023-04-01T02:14:05.217Z,90624.88
2023-04-01T02:16:37.483Z,90615.69
2023-04-01T02:19:08.481Z,90630.22
2023-04-01T02:21:36.411Z,90618.88
2023-04-01T02:24:05.588Z,90621.84
2023-04-01T02:26:32.284Z,90616.22
2023-04-01T02:29:00.828Z,90618.66
2023-04-01T02:31:28.225Z,90613.59
2023-04-01T02:33:56.073Z,90611.41
2023-04-01T02:36:22.641Z,90605.56
2023-04-01T02:38:51.097Z,90599.69
2023-04-01T02:41:17.734Z,90583.88
2023-04-01T02:43:44.280Z,90592.00
2023-04-01T02:46:10.840Z,90587.56
2023-04-01T02:48:37.467Z,90592.00
2023-04-01T02:51:04.844Z,90589.50
2023-04-01T02:53:31.331Z,90597.22
2023-04-01T02:55:57.906Z,90589.31
2023-04-01T02:58:24.462Z,90591.72
2023-04-01T03:00:51.046Z,90588.31
2023-04-01T03:03:17.688Z,90596.63
2023-04-01T03:05:44.349Z,90591.41
2023-04-01T03:08:11.179Z,90601.81
2023-04-01T03:10:37.953Z,90608.94
2023-04-01T03:13:04.433Z,90605.31
2023-04-01T03:15:31.227Z,90593.50
2023-04-01T03:17:58.065Z,90596.56
2023-04-01T03:20:29.933Z,90594.81
2023-04-01T03:22:57.053Z,90595.28
2023-04-01T03:25:23.822Z,90588.06
2023-04-01T03:27:50.813Z,90574.44
2023-04-01T03:30:17.389Z,90564.56
2023-04-01T03:32:44.091Z,90561.00
2023-04-01T03:35:11.387Z,90564.59
2023-04-01T03:37:37.983Z,90553.88
2023-04-01T03:40:04.851Z,90552.50
2023-04-01T03:42:32.539Z,90548.41
2023-04-01T03:44:59.193Z,90543.97
2023-04-01T03:47:25.838Z,90551.06
2023-04-01T03:49:52.413Z,90544.28
2023-04-01T03:52:18.989Z,90549.25
2023-04-01T03:54:45.563Z,90544.91
2023-04-01T03:57:12.186Z,90547.19
2023-04-01T03:59:38.821Z,90550.22
2023-04-01T04:02:06.099Z,90546.91
2023-04-01T04:04:33.299Z,90548.13
2023-04-01T04:06:59.928Z,90546.34
2023-04-01T04:09:26.522Z,90548.31
2023-04-01T04:11:53.094Z,90540.94
2023-04-01T04:14:19.643Z,90532.84
2023-04-01T04:16:46.240Z,90527.75
2023-04-01T04:19:13.264Z,90529.78
2023-04-01T04:21:40.841Z,90545.41
2023-04-01T04:24:07.538Z,90525.13
2023-04-01T04:26:34.054Z,90530.47
2023-04-01T04:29:00.665Z,90519.44
2023-04-01T04:31:27.717Z,90510.41
2023-04-01T04:33:54.866Z,90509.06
2023-04-01T04:36:22.214Z,90508.34
2023-04-01T04:38:49.209Z,90515.84
2023-04-01T04:41:19.120Z,90516.25
2023-04-01T04:43:56.439Z,90522.44
2023-04-01T04:46:23.779Z,90518.69
2023-04-01T04:48:50.462Z,90515.81
2023-04-01T04:51:18.769Z,90515.22
2023-04-01T04:53:45.545Z,90514.19
2023-04-01T04:56:12.197Z,90505.22
2023-04-01T04:58:39.473Z,90505.94
2023-04-01T05:01:07.039Z,90506.50
2023-04-01T05:03:33.776Z,90501.53
2023-04-01T05:06:01.628Z,90507.22
2023-04-01T05:08:28.164Z,90507.03
2023-04-01T05:10:54.723Z,90497.34
2023-04-01T05:13:21.499Z,90491.59
2023-04-01T05:15:48.180Z,90484.06
2023-04-01T05:18:14.784Z,90488.31
2023-04-01T05:20:47.145Z,90484.75
2023-04-01T05:23:13.669Z,90485.94
2023-04-01T05:25:40.624Z,90491.16
2023-04-01T05:28:07.235Z,90491.56
2023-04-01T05:30:33.941Z,90491.22
2023-04-01T05:33:00.775Z,90490.91
2023-04-01T05:35:27.532Z,90485.78
2023-04-01T05:37:54.035Z,90495.13
2023-04-01T05:40:20.597Z,90492.59
2023-04-01T05:42:47.141Z,90485.19
2023-04-01T05:45:16.494Z,90486.75
2023-04-01T05:47:43.597Z,90485.69
2023-04-01T05:50:11.774Z,90474.91
2023-04-01T05:52:38.963Z,90464.06
2023-04-01T05:55:06.077Z,90464.38
2023-04-01T05:57:32.656Z,90456.53
2023-04-01T05:59:59.338Z,90456.22
2023-04-01T06:02:26.044Z,90461.03
2023-04-01T06:05:01.772Z,90459.28
2023-04-01T06:07:28.546Z,90459.50
2023-04-01T06:09:55.797Z,90467.38
2023-04-01T06:12:36.320Z,90458.78
2023-04-01T06:15:12.957Z,90463.34
2023-04-01T06:17:52.302Z,90473.59
2023-04-01T06:20:21.652Z,90470.00
2023-04-01T06:22:57.515Z,90474.91
2023-04-01T06:25:26.959Z,90461.97
2023-04-01T06:27:59.685Z,90457.19
2023-04-01T06:30:26.160Z,90456.16
2023-04-01T06:33:13.033Z,90446.13
2023-04-01T06:35:42.448Z,90436.44
2023-04-01T06:38:28.196Z,90443.88
2023-04-01T06:41:09.059Z,90443.00
2023-04-01T06:43:45.384Z,90433.75
2023-04-01T06:46:28.379Z,90428.19
2023-04-01T06:49:13.937Z,90432.91
2023-04-01T06:51:40.739Z,90429.63
2023-04-01T06:54:12.541Z,90427.44
2023-04-01T06:56:42.109Z,90424.28
2023-04-01T06:59:15.064Z,90422.16
2023-04-01T07:01:52.717Z,90420.22
2023-04-01T07:04:27.305Z,90422.75
2023-04-01T07:06:54.383Z,90428.69
2023-04-01T07:09:23.377Z,90427.47
2023-04-01T07:11:51.564Z,90426.00
2023-04-01T07:14:23.088Z,90423.88
2023-04-01T07:16:52.368Z,90406.91
2023-04-01T07:19:24.135Z,90404.41
2023-04-01T07:22:05.981Z,90400.66
2023-04-01T07:24:37.109Z,90397.03
2023-04-01T07:27:03.692Z,90403.88
2023-04-01T07:29:30.442Z,90409.13
2023-04-01T07:32:15.829Z,90414.59
2023-04-01T07:35:11.866Z,90387.84
2023-04-01T07:37:57.629Z,90399.59
2023-04-01T07:40:40.602Z,90375.91
2023-04-01T07:43:18.667Z,90371.53
2023-04-01T07:45:45.339Z,90353.09
2023-04-01T07:48:11.938Z,90346.53
2023-04-01T07:50:53.215Z,90355.72
2023-04-01T07:53:21.216Z,90358.00
2023-04-01T07:55:52.450Z,90356.53
2023-04-01T07:58:37.897Z,90343.91
2023-04-01T08:01:12.113Z,90336.31
2023-04-01T08:03:57.332Z,90345.06
2023-04-01T08:06:30.336Z,90344.38
2023-04-01T08:09:02.924Z,90340.91
2023-04-01T08:11:46.269Z,90347.19
2023-04-01T08:14:28.218Z,90349.28
2023-04-01T08:17:08.783Z,90342.66
2023-04-01T08:19:57.646Z,90366.22
2023-04-01T08:22:39.895Z,90336.13
2023-04-01T08:25:08.846Z,90346.50
2023-04-01T08:27:40.740Z,90346.53
2023-04-01T08:30:22.367Z,90346.91
2023-04-01T08:33:16.038Z,90320.00
2023-04-01T08:35:47.846Z,90317.56
2023-04-01T08:38:18.036Z,90313.88
2023-04-01T08:40:44.711Z,90327.91
2023-04-01T08:43:38.074Z,90300.00
2023-04-01T08:46:19.116Z,90323.63
2023-04-01T08:48:55.049Z,90325.13
2023-04-01T08:51:31.758Z,90303.66
2023-04-01T08:54:16.758Z,90309.94
2023-04-01T08:56:43.450Z,90302.69
2023-04-01T08:59:09.975Z,90282.81
2023-04-01T09:01:36.680Z,90280.06
2023-04-01T09:04:09.218Z,90297.28
2023-04-01T09:06:53.120Z,90275.69
2023-04-01T09:09:32.653Z,90258.66
2023-04-01T09:12:17.924Z,90278.72
2023-04-01T09:15:02.897Z,90273.44
2023-04-01T09:17:35.928Z,90269.88
2023-04-01T09:20:05.823Z,90273.41
2023-04-01T09:22:38.358Z,90262.44
2023-04-01T09:25:31.241Z,90250.44
2023-04-01T09:28:03.216Z,90253.66
2023-04-01T09:30:48.017Z,90247.53
2023-04-01T09:33:29.763Z,90246.41
2023-04-01T09:36:08.389Z,90251.94
2023-04-01T09:38:38.013Z,90256.84
2023-04-01T09:41:04.600Z,90234.84
2023-04-01T09:43:41.100Z,90232.38
2023-04-01T09:46:10.892Z,90233.25
2023-04-01T09:48:56.710Z,90221.34
2023-04-01T09:51:45.563Z,90207.06
2023-04-01T09:54:37.449Z,90212.28
2023-04-01T09:57:04.045Z,90196.41
2023-04-01T09:59:39.969Z,90192.91
2023-04-01T10:02:06.943Z,90182.75
2023-04-01T10:04:37.037Z,90183.13
2023-04-01T10:07:39.421Z,90180.47
2023-04-01T10:10:24.388Z,90194.88
2023-04-01T10:12:54.328Z,90191.34
2023-04-01T10:15:27.136Z,90189.31
2023-04-01T10:18:19.591Z,90196.94
2023-04-01T10:21:05.106Z,90189.00
2023-04-01T10:23:41.078Z,90191.44
2023-04-01T10:26:10.811Z,90193.59
2023-04-01T10:28:49.746Z,90188.66
2023-04-01T10:31:31.682Z,90185.78
2023-04-01T10:33:58.294Z,90199.03
2023-04-01T10:36:34.221Z,90197.59
2023-04-01T10:39:19.337Z,90198.19
2023-04-01T10:41:48.585Z,90188.88
2023-04-01T10:44:34.998Z,90181.53
2023-04-01T11:48:17.346Z,90128.63
2023-04-01T11:51:03.253Z,90131.53
2023-04-01T11:53:51.357Z,90126.75
2023-04-01T11:56:59.543Z,90128.50
2023-04-01T11:59:51.129Z,90116.22
2023-04-01T12:02:23.347Z,90107.59
2023-04-01T12:05:15.918Z,90094.97
2023-04-01T12:08:10.359Z,90092.78
2023-04-01T12:11:10.224Z,90099.53
2023-04-01T12:14:00.119Z,90091.06
2023-04-01T12:16:33.024Z,90094.16
2023-04-01T12:19:15.954Z,90072.63
2023-04-01T12:22:14.764Z,90071.97
2023-04-01T12:24:57.578Z,90056.97
2023-04-01T12:27:55.084Z,90058.09
2023-04-01T12:30:37.091Z,90058.75
2023-04-01T12:33:31.290Z,90065.41
2023-04-01T12:36:22.207Z,90074.28
2023-04-01T12:39:07.423Z,90079.41
2023-04-01T12:42:05.664Z,90092.81
2023-04-01T12:44:53.685Z,90092.94
2023-04-01T12:47:55.936Z,90068.09
2023-04-01T12:50:23.087Z,90070.44
2023-04-01T12:53:11.320Z,90050.91
2023-04-01T12:55:43.661Z,90085.88
2023-04-01T12:58:28.508Z,90093.91
2023-04-01T13:01:20.377Z,90078.97
2023-04-01T13:04:17.818Z,90062.91
2023-04-01T13:07:06.457Z,90050.66
2023-04-01T13:09:51.974Z,90043.56
2023-04-01T13:12:44.199Z,90036.75
2023-04-01T13:15:14.477Z,90026.81
2023-04-01T13:17:54.371Z,90036.09
2023-04-01T13:20:42.339Z,90040.06
2023-04-01T13:23:41.539Z,90045.47
2023-04-01T13:26:19.750Z,90042.28
2023-04-01T13:29:17.749Z,90041.03
2023-04-01T13:31:47.142Z,90033.00
2023-04-01T13:34:38.191Z,90042.69
2023-04-01T13:37:27.110Z,90029.41
2023-04-01T13:40:31.613Z,90032.69
2023-04-01T13:43:03.527Z,90032.06
2023-04-01T13:45:54.567Z,90020.75
2023-04-01T13:48:46.456Z,90027.59
2023-04-01T13:51:36.414Z,89995.19
2023-04-01T13:54:21.799Z,90020.25
2023-04-01T13:57:22.258Z,90004.78
2023-04-01T14:00:10.884Z,90010.38
2023-04-01T14:03:08.789Z,90007.66
2023-04-01T14:05:54.092Z,90002.56
2023-04-01T14:08:49.738Z,90002.59
2023-04-01T14:11:28.581Z,89999.84
2023-04-01T14:14:13.611Z,89999.34
2023-04-01T14:16:43.287Z,89987.81
2023-04-01T14:19:31.840Z,89996.25
2023-04-01T14:22:13.174Z,90016.22
2023-04-01T14:25:18.372Z,90003.41
2023-04-01T14:28:12.714Z,90012.81
2023-04-01T14:30:54.367Z,90027.78
2023-04-01T14:33:26.560Z,90016.69
2023-04-01T14:36:29.411Z,90030.63
2023-04-01T14:39:41.568Z,90052.38
2023-04-01T14:42:33.400Z,90060.28
2023-04-01T14:45:14.347Z,90076.31
2023-04-01T14:47:59.620Z,90090.38
2023-04-01T14:50:29.780Z,90089.38
2023-04-01T14:53:08.698Z,90087.25
2023-04-01T14:55:49.189Z,90105.34
2023-04-01T14:58:26.265Z,90099.56
2023-04-01T15:01:01.341Z,90117.13
2023-04-01T15:03:31.358Z,90110.38
2023-04-01T15:06:40.162Z,90085.09
2023-04-01T15:09:19.188Z,90087.59
2023-04-01T15:11:45.945Z,90083.78
2023-04-01T15:14:19.627Z,90089.56
2023-04-01T15:17:10.456Z,90087.41
2023-04-01T15:19:57.655Z,90079.63
2023-04-01T15:22:57.462Z,90096.88
2023-04-01T15:25:43.123Z,90099.81
2023-04-01T15:28:39.770Z,90111.38
2023-04-01T15:31:18.566Z,90116.41
2023-04-01T15:33:50.569Z,90122.25
2023-04-01T15:36:26.675Z,90123.72
2023-04-01T15:39:16.509Z,90130.84
2023-04-01T15:41:45.982Z,90131.97
2023-04-01T15:44:39.324Z,90142.13
2023-04-01T15:47:26.939Z,90148.31
2023-04-01T15:50:22.929Z,90139.38
2023-04-01T15:53:09.070Z,90118.75
2023-04-01T15:55:44.500Z,90107.28
2023-04-01T15:58:54.916Z,90102.66
2023-04-01T16:01:43.158Z,90099.31
2023-04-01T16:04:40.960Z,90090.91
2023-04-01T16:07:44.816Z,90096.09
2023-04-01T16:10:26.125Z,90087.06
2023-04-01T16:13:00.240Z,90084.97
2023-04-01T16:15:36.032Z,90090.16
2023-04-01T16:18:02.684Z,90092.34
2023-04-01T16:20:52.878Z,90098.75
2023-04-01T16:23:31.394Z,90094.63
2023-04-01T16:26:07.795Z,90096.06
2023-04-01T16:28:50.523Z,90091.38
2023-04-01T16:31:32.676Z,90089.69
2023-04-01T16:34:25.800Z,90089.69
2023-04-01T16:37:14.194Z,90094.66
2023-04-01T16:39:44.743Z,90104.44
2023-04-01T16:43:16.486Z,90103.66
2023-04-01T16:45:54.361Z,90104.63
2023-04-01T16:48:47.321Z,90102.88
2023-04-01T16:51:17.024Z,90090.03
2023-04-01T16:53:51.000Z,90074.78
2023-04-01T16:56:23.226Z,90073.28
2023-04-01T16:58:56.022Z,90083.22
2023-04-01T17:01:30.296Z,90092.81
2023-04-01T17:04:11.820Z,90096.28
2023-04-01T17:06:48.342Z,90095.47
2023-04-01T17:09:30.636Z,90120.88
2023-04-01T17:12:35.461Z,90136.00
2023-04-01T17:15:35.613Z,90153.66
2023-04-01T17:18:05.529Z,90152.06
2023-04-01T17:20:47.302Z,90153.34
2023-04-01T17:23:21.439Z,90160.84
2023-04-01T17:25:48.083Z,90154.69
2023-04-01T17:28:42.535Z,90146.19
2023-04-01T17:31:20.603Z,90148.91
2023-04-01T17:34:05.799Z,90139.97
2023-04-01T17:37:00.394Z,90148.34
2023-04-01T17:40:00.041Z,90152.63
2023-04-01T17:42:47.986Z,90154.97
2023-04-01T17:45:57.786Z,90148.66
2023-04-01T17:48:43.003Z,90150.91
2023-04-01T17:51:24.760Z,90153.94
2023-04-01T17:54:00.305Z,90156.16
2023-04-01T17:56:30.215Z,90146.06
2023-04-01T17:59:21.380Z,90144.28
2023-04-01T18:02:25.677Z,90148.09
2023-04-01T18:05:07.525Z,90159.28
2023-04-01T18:08:02.984Z,90171.25
2023-04-01T18:10:53.264Z,90172.72
2023-04-01T18:13:47.434Z,90181.72
2023-04-01T18:16:29.854Z,90181.44
2023-04-01T18:19:19.698Z,90182.25
2023-04-01T18:21:54.551Z,90190.09
2023-04-01T18:24:39.634Z,90203.53
2023-04-01T18:27:19.270Z,90201.31
2023-04-01T18:29:54.676Z,90210.63
2023-04-01T18:32:56.917Z,90204.31
2023-04-01T18:35:41.924Z,90214.75
2023-04-01T18:38:11.868Z,90219.97
2023-04-01T18:41:00.863Z,90221.47
2023-04-01T18:43:57.831Z,90236.38
2023-04-01T18:46:39.308Z,90229.66
2023-04-01T18:49:21.852Z,90234.88
2023-04-01T18:51:59.638Z,90244.47
2023-04-01T18:54:33.393Z,90259.44
2023-04-01T18:57:14.395Z,90275.09
2023-04-01T18:59:47.819Z,90287.75
2023-04-01T19:02:28.962Z,90306.81
2023-04-01T19:05:11.526Z,90304.97
2023-04-01T19:07:38.170Z,90304.63
2023-04-01T19:10:28.633Z,90298.25
2023-04-01T19:13:01.488Z,90302.72
2023-04-01T19:15:40.401Z,90308.25
2023-04-01T19:18:29.076Z,90308.69
2023-04-01T19:21:08.570Z,90313.19
2023-04-01T19:23:57.490Z,90297.91
2023-04-01T19:26:30.322Z,90314.94
2023-04-01T19:29:19.618Z,90316.47
2023-04-01T19:32:03.596Z,90325.81
2023-04-01T19:35:15.334Z,90342.28
2023-04-01T19:37:51.895Z,90329.97
2023-04-01T19:40:32.137Z,90347.47
2023-04-01T19:43:02.372Z,90344.59
2023-04-01T19:45:49.006Z,90335.19
2023-04-01T19:48:41.788Z,90338.88
2023-04-01T19:51:23.345Z,90336.00
2023-04-01T19:54:21.019Z,90354.72
2023-04-01T19:57:07.065Z,90337.63
2023-04-01T19:59:48.478Z,90323.47
2023-04-01T20:02:24.116Z,90328.72
2023-04-01T20:05:01.149Z,90330.97
2023-04-01T20:07:35.754Z,90332.84
2023-04-01T20:10:18.312Z,90333.94
2023-04-01T20:13:11.428Z,90351.00
2023-04-01T20:15:42.215Z,90355.28
2023-04-01T20:18:20.869Z,90313.84
2023-04-01T20:21:01.736Z,90343.19
2023-04-01T20:23:59.309Z,90343.31
2023-04-01T20:26:34.409Z,90339.69
2023-04-01T20:29:19.660Z,90339.75
2023-04-01T20:31:54.936Z,90344.16
2023-04-01T20:34:40.655Z,90345.69
2023-04-01T20:37:34.664Z,90341.19
2023-04-01T20:40:13.657Z,90332.25
2023-04-01T20:43:04.859Z,90333.00
2023-04-01T20:45:39.239Z,90336.94
2023-04-01T20:48:12.413Z,90344.25
2023-04-01T20:51:04.102Z,90341.41
2023-04-01T20:53:39.653Z,90341.75
2023-04-01T20:56:37.774Z,90353.28
2023-04-01T20:59:28.880Z,90357.34
2023-04-01T21:02:25.160Z,90359.44
2023-04-01T21:05:00.815Z,90365.34
2023-04-01T21:07:50.828Z,90366.88
2023-04-01T21:11:02.254Z,90351.72
2023-04-01T21:13:44.316Z,90362.50
2023-04-01T21:16:35.974Z,90362.31
2023-04-01T21:19:30.646Z,90367.94
2023-04-01T21:22:17.528Z,90370.72
2023-04-01T21:25:15.580Z,90375.41
2023-04-01T21:28:17.764Z,90380.59
2023-04-01T21:30:59.013Z,90376.88
2023-04-01T21:33:54.875Z,90370.25
2023-04-01T21:36:27.628Z,90370.22
2023-04-01T21:39:09.498Z,90370.31
2023-04-01T21:42:02.725Z,90362.41
2023-04-01T21:44:39.907Z,90359.84
2023-04-01T21:47:35.997Z,90365.44
2023-04-01T21:50:05.538Z,90362.59
2023-04-01T21:52:44.226Z,90365.66
2023-04-01T21:55:43.781Z,90374.50
2023-04-01T21:58:29.823Z,90368.50
2023-04-01T22:01:38.234Z,90360.94
2023-04-01T22:04:39.038Z,90370.28
2023-04-01T22:07:21.837Z,90370.41
2023-04-01T22:10:06.863Z,90363.13
2023-04-01T22:12:42.052Z,90367.69
2023-04-01T22:15:20.974Z,90370.25
2023-04-01T22:18:15.052Z,90365.56
2023-04-01T22:20:49.323Z,90376.63
2023-04-01T22:23:43.978Z,90387.03
2023-04-01T22:26:16.347Z,90381.22
2023-04-01T22:28:48.629Z,90380.84
2023-04-01T22:31:22.618Z,90370.94
2023-04-01T22:33:58.314Z,90374.72
2023-04-01T22:36:37.275Z,90376.41
2023-04-01T22:39:16.356Z,90381.94
2023-04-01T22:42:00.767Z,90347.38
2023-04-01T22:44:58.282Z,90384.19
2023-04-01T22:47:43.031Z,90381.00
2023-04-01T22:50:18.981Z,90388.53
2023-04-01T22:52:49.310Z,90388.00
2023-04-01T22:55:25.448Z,90378.41
2023-04-01T22:57:59.303Z,90374.53
2023-04-01T23:00:31.296Z,90385.66
2023-04-01T23:03:19.880Z,90386.63
2023-04-01T23:05:55.382Z,90387.50
2023-04-01T23:08:33.882Z,90397.41
2023-04-01T23:11:05.946Z,90404.94
2023-04-01T23:13:40.879Z,90405.88
2023-04-01T23:16:08.974Z,90401.63
2023-04-01T23:19:07.016Z,90402.13
2023-04-01T23:21:51.601Z,90409.41
2023-04-01T23:24:39.627Z,90407.84
2023-04-01T23:27:22.434Z,90410.22
2023-04-01T23:29:49.263Z,90402.41
2023-04-01T23:32:19.213Z,90421.59
2023-04-01T23:35:04.180Z,90416.66
2023-04-01T23:37:30.829Z,90424.19
2023-04-01T23:39:59.397Z,90439.81
2023-04-01T23:42:41.515Z,90437.66
2023-04-01T23:45:21.578Z,90425.81
2023-04-01T23:47:51.545Z,90422.91
2023-04-01T23:50:22.234Z,90446.72
2023-04-01T23:53:19.693Z,90428.31
2023-04-01T23:55:47.692Z,90434.81
2023-04-01T23:58:29.474Z,90446.50
